sensor_id;sensor_type;location;lat;lon;timestamp;pressure;altitude;pressure_sealevel;temperature;humidity
41703;BME280;861;48.808;9.006;2023-01-19T00:00:51;96031.44;;;0.16;69.31
41703;BME280;861;48.808;9.006;2023-01-19T00:03:18;96026.75;;;-0.03;69.54
41703;BME280;861;48.808;9.006;2023-01-19T00:05:45;96029.44;;;-0.03;70.31
41703;BME280;861;48.808;9.006;2023-01-19T00:08:12;96034.47;;;0.15;70.06
41703;BME280;861;48.808;9.006;2023-01-19T00:10:48;96024.75;;;-0.06;70.27
41703;BME280;861;48.808;9.006;2023-01-19T00:13:18;96024.16;;;-0.15;70.59
41703;BME280;861;48.808;9.006;2023-01-19T00:15:45;96030.50;;;0.09;70.06
41703;BME280;861;48.808;9.006;2023-01-19T00:18:11;96029.91;;;0.15;69.01
41703;BME280;861;48.808;9.006;2023-01-19T00:20:39;96031.59;;;-0.08;69.50
41703;BME280;861;48.808;9.006;2023-01-19T00:23:06;96027.97;;;-0.55;71.14
41703;BME280;861;48.808;9.006;2023-01-19T00:25:33;96029.91;;;-0.80;73.12
41703;BME280;861;48.808;9.006;2023-01-19T00:27:59;96031.75;;;-1.08;75.76
41703;BME280;861;48.808;9.006;2023-01-19T00:30:26;96040.06;;;-0.85;75.75
41703;BME280;861;48.808;9.006;2023-01-19T00:32:52;96040.47;;;-0.71;74.59
41703;BME280;861;48.808;9.006;2023-01-19T00:35:18;96038.81;;;-0.88;75.15
41703;BME280;861;48.808;9.006;2023-01-19T00:37:44;96042.09;;;-1.18;76.31
41703;BME280;861;48.808;9.006;2023-01-19T00:40:12;96038.25;;;-0.81;75.58
41703;BME280;861;48.808;9.006;2023-01-19T00:42:39;96046.41;;;-0.78;74.37
41703;BME280;861;48.808;9.006;2023-01-19T00:45:21;96045.00;;;-0.48;73.96
41703;BME280;861;48.808;9.006;2023-01-19T00:47:50;96036.91;;;-0.63;74.02
41703;BME280;861;48.808;9.006;2023-01-19T00:50:29;96039.75;;;-0.56;73.39
41703;BME280;861;48.808;9.006;2023-01-19T00:52:57;96036.97;;;-0.48;73.17
41703;BME280;861;48.808;9.006;2023-01-19T00:55:27;96044.94;;;-0.36;72.73
41703;BME280;861;48.808;9.006;2023-01-19T00:57:55;96045.50;;;-0.42;72.50
41703;BME280;861;48.808;9.006;2023-01-19T01:00:22;96035.94;;;-0.43;72.34
41703;BME280;861;48.808;9.006;2023-01-19T01:02:52;96045.75;;;-0.47;72.08
41703;BME280;861;48.808;9.006;2023-01-19T01:05:20;96042.09;;;-0.43;71.65
41703;BME280;861;48.808;9.006;2023-01-19T01:07:47;96047.47;;;-0.27;71.48
41703;BME280;861;48.808;9.006;2023-01-19T01:10:21;96048.69;;;-0.25;71.17
41703;BME280;861;48.808;9.006;2023-01-19T01:12:50;96053.06;;;-0.32;71.40
41703;BME280;861;48.808;9.006;2023-01-19T01:15:18;96049.50;;;-0.36;70.81
41703;BME280;861;48.808;9.006;2023-01-19T01:17:45;96053.88;;;-0.44;71.54
41703;BME280;861;48.808;9.006;2023-01-19T01:20:25;96052.78;;;-0.55;72.07
41703;BME280;861;48.808;9.006;2023-01-19T01:22:55;96055.16;;;-0.65;72.65
41703;BME280;861;48.808;9.006;2023-01-19T01:25:25;96058.06;;;-0.70;72.96
41703;BME280;861;48.808;9.006;2023-01-19T01:27:53;96060.84;;;-0.79;73.21
41703;BME280;861;48.808;9.006;2023-01-19T01:30:22;96057.53;;;-0.88;73.85
41703;BME280;861;48.808;9.006;2023-01-19T01:32:49;96051.84;;;-0.74;73.16
41703;BME280;861;48.808;9.006;2023-01-19T01:35:15;96052.06;;;-0.79;73.16
41703;BME280;861;48.808;9.006;2023-01-19T01:37:42;96058.63;;;-0.77;73.50
41703;BME280;861;48.808;9.006;2023-01-19T01:40:15;96073.41;;;-0.67;73.11
41703;BME280;861;48.808;9.006;2023-01-19T01:42:44;96069.88;;;-0.71;72.75
41703;BME280;861;48.808;9.006;2023-01-19T01:45:36;96071.78;;;-0.84;72.74
41703;BME280;861;48.808;9.006;2023-01-19T01:48:25;96076.13;;;-1.03;73.17
41703;BME280;861;48.808;9.006;2023-01-19T01:51:07;96065.69;;;-0.96;72.61
41703;BME280;861;48.808;9.006;2023-01-19T01:56:57;96067.91;;;-0.98;72.66
41703;BME280;861;48.808;9.006;2023-01-19T01:59:36;96066.13;;;-1.06;72.76
41703;BME280;861;48.808;9.006;2023-01-19T02:02:18;96054.22;;;-1.33;73.68
41703;BME280;861;48.808;9.006;2023-01-19T02:05:32;96058.75;;;-1.45;74.51
41703;BME280;861;48.808;9.006;2023-01-19T02:08:40;96067.31;;;-1.52;74.37
41703;BME280;861;48.808;9.006;2023-01-19T02:11:32;96060.97;;;-1.47;74.10
41703;BME280;861;48.808;9.006;2023-01-19T02:14:19;96062.56;;;-1.34;74.25
41703;BME280;861;48.808;9.006;2023-01-19T02:16:47;96071.69;;;-1.23;73.45
41703;BME280;861;48.808;9.006;2023-01-19T02:19:30;96059.88;;;-1.34;73.97
41703;BME280;861;48.808;9.006;2023-01-19T02:22:30;96060.44;;;-1.05;72.63
41703;BME280;861;48.808;9.006;2023-01-19T02:25:05;96060.56;;;-1.37;73.05
41703;BME280;861;48.808;9.006;2023-01-19T02:27:33;96068.13;;;-1.39;73.57
41703;BME280;861;48.808;9.006;2023-01-19T02:30:03;96056.63;;;-1.52;74.31
41703;BME280;861;48.808;9.006;2023-01-19T02:32:32;96058.09;;;-1.30;73.70
41703;BME280;861;48.808;9.006;2023-01-19T02:34:58;96063.66;;;-1.35;74.08
41703;BME280;861;48.808;9.006;2023-01-19T02:37:31;96060.97;;;-1.47;74.57
41703;BME280;861;48.808;9.006;2023-01-19T02:40:13;96067.31;;;-1.40;74.64
41703;BME280;861;48.808;9.006;2023-01-19T02:42:51;96063.75;;;-1.56;75.12
41703;BME280;861;48.808;9.006;2023-01-19T02:45:26;96062.22;;;-1.33;74.59
41703;BME280;861;48.808;9.006;2023-01-19T02:47:54;96063.34;;;-1.22;73.65
41703;BME280;861;48.808;9.006;2023-01-19T02:50:43;96068.56;;;-1.13;73.44
41703;BME280;861;48.808;9.006;2023-01-19T03:04:10;96060.34;;;-0.96;72.97
41703;BME280;861;48.808;9.006;2023-01-19T03:07:09;96066.00;;;-0.86;72.33
41703;BME280;861;48.808;9.006;2023-01-19T03:10:07;96060.88;;;-0.91;72.99
41703;BME280;861;48.808;9.006;2023-01-19T03:13:18;96062.66;;;-0.95;72.78
41703;BME280;861;48.808;9.006;2023-01-19T03:16:20;96065.91;;;-1.01;72.74
41703;BME280;861;48.808;9.006;2023-01-19T03:19:25;96069.91;;;-0.95;72.80
41703;BME280;861;48.808;9.006;2023-01-19T03:22:19;96071.00;;;-0.84;72.26
41703;BME280;861;48.808;9.006;2023-01-19T03:24:55;96070.78;;;-1.03;72.21
41703;BME280;861;48.808;9.006;2023-01-19T03:27:29;96065.53;;;-1.12;72.78
41703;BME280;861;48.808;9.006;2023-01-19T03:30:16;96063.88;;;-0.92;71.38
41703;BME280;861;48.808;9.006;2023-01-19T03:33:08;96065.91;;;-1.01;71.86
41703;BME280;861;48.808;9.006;2023-01-19T03:35:49;96062.78;;;-1.27;72.85
41703;BME280;861;48.808;9.006;2023-01-19T03:38:27;96067.63;;;-1.66;73.55
41703;BME280;861;48.808;9.006;2023-01-19T03:41:10;96071.31;;;-1.46;73.50
41703;BME280;861;48.808;9.006;2023-01-19T03:43:44;96067.66;;;-1.53;73.72
41703;BME280;861;48.808;9.006;2023-01-19T03:46:16;96077.31;;;-1.49;74.10
41703;BME280;861;48.808;9.006;2023-01-19T03:48:46;96075.78;;;-1.38;73.28
41703;BME280;861;48.808;9.006;2023-01-19T03:51:16;96070.00;;;-1.40;73.14
41703;BME280;861;48.808;9.006;2023-01-19T03:53:45;96079.78;;;-1.56;73.73
41703;BME280;861;48.808;9.006;2023-01-19T03:56:24;96084.00;;;-1.55;73.70
41703;BME280;861;48.808;9.006;2023-01-19T03:58:51;96085.41;;;-1.70;74.29
41703;BME280;861;48.808;9.006;2023-01-19T04:01:19;96083.56;;;-1.90;75.41
41703;BME280;861;48.808;9.006;2023-01-19T04:03:51;96075.16;;;-2.12;75.77
41703;BME280;861;48.808;9.006;2023-01-19T04:06:20;96082.22;;;-1.96;76.06
41703;BME280;861;48.808;9.006;2023-01-19T04:08:50;96086.25;;;-1.78;75.10
41703;BME280;861;48.808;9.006;2023-01-19T04:11:17;96079.53;;;-1.63;74.25
41703;BME280;861;48.808;9.006;2023-01-19T04:13:43;96090.13;;;-1.54;73.56
41703;BME280;861;48.808;9.006;2023-01-19T04:16:11;96089.94;;;-1.70;74.44
41703;BME280;861;48.808;9.006;2023-01-19T04:18:39;96091.19;;;-1.68;74.23
41703;BME280;861;48.808;9.006;2023-01-19T04:21:07;96095.34;;;-1.58;74.08
41703;BME280;861;48.808;9.006;2023-01-19T04:23:33;96094.31;;;-1.66;74.35
41703;BME280;861;48.808;9.006;2023-01-19T04:26:07;96092.63;;;-1.70;74.90
41703;BME280;861;48.808;9.006;2023-01-19T04:28:35;96096.53;;;-1.68;73.96
41703;BME280;861;48.808;9.006;2023-01-19T04:31:04;96097.41;;;-1.64;74.17
41703;BME280;861;48.808;9.006;2023-01-19T04:33:32;96096.31;;;-1.63;74.45
41703;BME280;861;48.808;9.006;2023-01-19T04:35:59;96095.66;;;-1.60;73.78
41703;BME280;861;48.808;9.006;2023-01-19T04:38:26;96105.34;;;-1.55;74.66
41703;BME280;861;48.808;9.006;2023-01-19T04:40:53;96093.78;;;-1.47;73.31
41703;BME280;861;48.808;9.006;2023-01-19T04:43:22;96096.59;;;-1.43;74.02
41703;BME280;861;48.808;9.006;2023-01-19T04:45:49;96090.59;;;-1.16;72.92
41703;BME280;861;48.808;9.006;2023-01-19T04:48:17;96100.06;;;-1.19;73.06
41703;BME280;861;48.808;9.006;2023-01-19T04:50:44;96101.69;;;-1.38;73.54
41703;BME280;861;48.808;9.006;2023-01-19T04:53:10;96098.16;;;-1.30;73.64
41703;BME280;861;48.808;9.006;2023-01-19T04:55:38;96099.03;;;-1.38;74.32
41703;BME280;861;48.808;9.006;2023-01-19T04:58:05;96110.97;;;-1.69;76.11
41703;BME280;861;48.808;9.006;2023-01-19T05:00:31;96104.22;;;-1.54;76.40
41703;BME280;861;48.808;9.006;2023-01-19T05:02:58;96110.91;;;-1.48;76.02
41703;BME280;861;48.808;9.006;2023-01-19T05:05:26;96106.81;;;-1.33;75.02
41703;BME280;861;48.808;9.006;2023-01-19T05:07:53;96110.28;;;-1.21;75.22
41703;BME280;861;48.808;9.006;2023-01-19T05:10:20;96105.72;;;-1.20;75.02
41703;BME280;861;48.808;9.006;2023-01-19T05:12:46;96104.38;;;-1.14;74.46
41703;BME280;861;48.808;9.006;2023-01-19T05:15:12;96118.94;;;-1.12;74.47
41703;BME280;861;48.808;9.006;2023-01-19T05:17:39;96110.16;;;-1.24;75.02
41703;BME280;861;48.808;9.006;2023-01-19T05:20:08;96112.28;;;-1.18;75.26
41703;BME280;861;48.808;9.006;2023-01-19T05:22:35;96117.19;;;-0.96;74.18
41703;BME280;861;48.808;9.006;2023-01-19T05:25:01;96118.31;;;-0.85;73.80
41703;BME280;861;48.808;9.006;2023-01-19T05:27:28;96117.44;;;-0.89;73.86
41703;BME280;861;48.808;9.006;2023-01-19T05:29:54;96122.06;;;-0.74;73.03
41703;BME280;861;48.808;9.006;2023-01-19T05:32:20;96121.19;;;-0.66;72.31
41703;BME280;861;48.808;9.006;2023-01-19T05:34:46;96128.75;;;-0.68;72.53
41703;BME280;861;48.808;9.006;2023-01-19T05:37:12;96123.09;;;-0.66;72.87
41703;BME280;861;48.808;9.006;2023-01-19T05:39:39;96121.09;;;-0.93;73.31
41703;BME280;861;48.808;9.006;2023-01-19T05:42:05;96127.00;;;-1.00;74.21
41703;BME280;861;48.808;9.006;2023-01-19T05:44:31;96125.03;;;-1.47;75.30
41703;BME280;861;48.808;9.006;2023-01-19T05:46:58;96123.59;;;-1.45;75.70
41703;BME280;861;48.808;9.006;2023-01-19T05:49:25;96129.97;;;-1.13;75.37
41703;BME280;861;48.808;9.006;2023-01-19T05:51:51;96142.97;;;-1.36;75.92
41703;BME280;861;48.808;9.006;2023-01-19T05:54:17;96138.56;;;-1.65;77.11
41703;BME280;861;48.808;9.006;2023-01-19T05:56:43;96145.53;;;-1.72;77.54
41703;BME280;861;48.808;9.006;2023-01-19T05:59:11;96143.13;;;-1.86;78.59
41703;BME280;861;48.808;9.006;2023-01-19T06:01:37;96145.38;;;-1.88;78.06
41703;BME280;861;48.808;9.006;2023-01-19T06:04:04;96144.88;;;-1.69;78.07
41703;BME280;861;48.808;9.006;2023-01-19T06:06:31;96144.63;;;-1.76;77.61
41703;BME280;861;48.808;9.006;2023-01-19T06:08:57;96156.31;;;-2.22;79.38
41703;BME280;861;48.808;9.006;2023-01-19T06:11:23;96145.81;;;-1.86;78.89
41703;BME280;861;48.808;9.006;2023-01-19T06:13:51;96154.00;;;-1.91;78.69
41703;BME280;861;48.808;9.006;2023-01-19T06:16:17;96153.81;;;-2.47;80.84
41703;BME280;861;48.808;9.006;2023-01-19T06:18:43;96157.78;;;-2.53;81.58
41703;BME280;861;48.808;9.006;2023-01-19T06:21:09;96158.25;;;-2.31;80.51
41703;BME280;861;48.808;9.006;2023-01-19T06:23:37;96166.97;;;-2.22;80.15
41703;BME280;861;48.808;9.006;2023-01-19T06:26:04;96164.75;;;-2.20;80.37
41703;BME280;861;48.808;9.006;2023-01-19T06:28:31;96169.44;;;-2.37;80.96
41703;BME280;861;48.808;9.006;2023-01-19T06:30:57;96168.78;;;-2.34;80.94
41703;BME280;861;48.808;9.006;2023-01-19T06:33:25;96162.66;;;-2.14;80.66
41703;BME280;861;48.808;9.006;2023-01-19T06:35:53;96161.13;;;-2.36;80.80
41703;BME280;861;48.808;9.006;2023-01-19T06:38:19;96169.41;;;-2.08;80.40
41703;BME280;861;48.808;9.006;2023-01-19T06:40:54;96156.16;;;-2.05;79.35
41703;BME280;861;48.808;9.006;2023-01-19T06:43:28;96163.84;;;-2.03;79.23
41703;BME280;861;48.808;9.006;2023-01-19T06:45:57;96165.97;;;-1.76;78.99
41703;BME280;861;48.808;9.006;2023-01-19T06:48:25;96168.47;;;-1.59;77.86
41703;BME280;861;48.808;9.006;2023-01-19T06:50:51;96167.56;;;-1.63;77.08
41703;BME280;861;48.808;9.006;2023-01-19T06:53:18;96170.97;;;-1.75;76.70
41703;BME280;861;48.808;9.006;2023-01-19T06:55:45;96168.69;;;-1.64;77.00
41703;BME280;861;48.808;9.006;2023-01-19T06:58:12;96175.97;;;-1.73;77.55
41703;BME280;861;48.808;9.006;2023-01-19T07:00:39;96175.25;;;-1.62;77.62
41703;BME280;861;48.808;9.006;2023-01-19T07:03:21;96173.72;;;-1.83;78.59
41703;BME280;861;48.808;9.006;2023-01-19T07:05:54;96178.22;;;-2.16;79.98
41703;BME280;861;48.808;9.006;2023-01-19T07:08:23;96170.94;;;-1.87;79.11
41703;BME280;861;48.808;9.006;2023-01-19T07:10:49;96175.94;;;-2.06;79.59
41703;BME280;861;48.808;9.006;2023-01-19T07:13:15;96169.13;;;-1.95;79.63
41703;BME280;861;48.808;9.006;2023-01-19T07:15:41;96182.41;;;-2.07;79.46
41703;BME280;861;48.808;9.006;2023-01-19T07:18:08;96175.94;;;-2.06;80.24
41703;BME280;861;48.808;9.006;2023-01-19T07:20:36;96176.31;;;-1.95;79.62
41703;BME280;861;48.808;9.006;2023-01-19T07:23:03;96169.97;;;-2.03;80.01
41703;BME280;861;48.808;9.006;2023-01-19T07:25:30;96179.50;;;-2.02;80.03
41703;BME280;861;48.808;9.006;2023-01-19T07:28:01;96169.91;;;-1.94;79.65
41703;BME280;861;48.808;9.006;2023-01-19T07:30:28;96182.06;;;-1.85;79.25
41703;BME280;861;48.808;9.006;2023-01-19T07:32:57;96170.66;;;-1.94;79.75
41703;BME280;861;48.808;9.006;2023-01-19T07:35:24;96175.59;;;-1.84;79.27
41703;BME280;861;48.808;9.006;2023-01-19T07:37:51;96185.44;;;-1.96;79.89
41703;BME280;861;48.808;9.006;2023-01-19T07:40:17;96182.03;;;-1.64;78.41
41703;BME280;861;48.808;9.006;2023-01-19T07:42:48;96183.47;;;-1.34;76.46
41703;BME280;861;48.808;9.006;2023-01-19T07:45:18;96178.34;;;-1.39;77.04
41703;BME280;861;48.808;9.006;2023-01-19T07:47:48;96183.91;;;-1.32;76.68
41703;BME280;861;48.808;9.006;2023-01-19T07:50:19;96188.69;;;-1.25;77.71
41703;BME280;861;48.808;9.006;2023-01-19T07:52:51;96188.16;;;-1.19;77.26
41703;BME280;861;48.808;9.006;2023-01-19T07:55:23;96198.19;;;-1.16;76.64
41703;BME280;861;48.808;9.006;2023-01-19T07:57:51;96196.72;;;-1.25;77.32
41703;BME280;861;48.808;9.006;2023-01-19T08:00:20;96203.41;;;-1.19;77.22
41703;BME280;861;48.808;9.006;2023-01-19T08:02:51;96205.75;;;-1.18;76.86
41703;BME280;861;48.808;9.006;2023-01-19T08:05:19;96207.06;;;-1.24;76.37
41703;BME280;861;48.808;9.006;2023-01-19T08:07:46;96213.84;;;-1.26;76.82
41703;BME280;861;48.808;9.006;2023-01-19T08:10:16;96207.31;;;-1.17;76.51
41703;BME280;861;48.808;9.006;2023-01-19T08:12:42;96213.88;;;-1.14;77.15
41703;BME280;861;48.808;9.006;2023-01-19T08:15:10;96212.34;;;-1.03;76.65
41703;BME280;861;48.808;9.006;2023-01-19T08:17:36;96210.88;;;-1.01;76.64
41703;BME280;861;48.808;9.006;2023-01-19T08:20:04;96212.19;;;-1.19;77.09
41703;BME280;861;48.808;9.006;2023-01-19T08:22:31;96221.22;;;-1.11;76.76
41703;BME280;861;48.808;9.006;2023-01-19T08:24:57;96224.88;;;-1.16;77.53
41703;BME280;861;48.808;9.006;2023-01-19T08:27:23;96220.09;;;-1.22;78.03
41703;BME280;861;48.808;9.006;2023-01-19T08:29:49;96222.00;;;-1.11;77.76
41703;BME280;861;48.808;9.006;2023-01-19T08:32:16;96221.03;;;-0.94;77.14
41703;BME280;861;48.808;9.006;2023-01-19T08:34:42;96231.75;;;-0.82;76.59
41703;BME280;861;48.808;9.006;2023-01-19T08:37:08;96234.66;;;-0.75;76.56
41703;BME280;861;48.808;9.006;2023-01-19T08:39:34;96226.88;;;-0.68;75.29
41703;BME280;861;48.808;9.006;2023-01-19T08:42:00;96230.75;;;-0.66;75.95
41703;BME280;861;48.808;9.006;2023-01-19T08:44:27;96234.22;;;-0.77;76.63
41703;BME280;861;48.808;9.006;2023-01-19T08:46:53;96230.88;;;-0.50;76.12
41703;BME280;861;48.808;9.006;2023-01-19T08:49:19;96223.63;;;-0.26;75.10
41703;BME280;861;48.808;9.006;2023-01-19T08:51:45;96234.00;;;-0.36;75.27
41703;BME280;861;48.808;9.006;2023-01-19T08:54:12;96233.88;;;-0.28;74.44
41703;BME280;861;48.808;9.006;2023-01-19T08:56:40;96228.00;;;-0.33;74.87
41703;BME280;861;48.808;9.006;2023-01-19T08:59:06;96229.53;;;-0.20;75.02
41703;BME280;861;48.808;9.006;2023-01-19T09:01:32;96240.88;;;0.01;74.09
41703;BME280;861;48.808;9.006;2023-01-19T09:03:58;96230.50;;;0.12;75.01
41703;BME280;861;48.808;9.006;2023-01-19T09:06:24;96231.81;;;0.57;72.76
41703;BME280;861;48.808;9.006;2023-01-19T09:08:50;96229.34;;;0.52;73.26
41703;BME280;861;48.808;9.006;2023-01-19T09:11:17;96237.38;;;0.25;73.24
41703;BME280;861;48.808;9.006;2023-01-19T09:13:44;96247.50;;;0.31;74.12
41703;BME280;861;48.808;9.006;2023-01-19T09:16:10;96247.28;;;0.36;73.86
41703;BME280;861;48.808;9.006;2023-01-19T09:18:38;96244.75;;;0.55;74.44
41703;BME280;861;48.808;9.006;2023-01-19T09:21:05;96248.78;;;0.49;74.13
41703;BME280;861;48.808;9.006;2023-01-19T09:23:31;96250.38;;;0.38;75.87
41703;BME280;861;48.808;9.006;2023-01-19T09:26:03;96235.75;;;0.48;76.03
41703;BME280;861;48.808;9.006;2023-01-19T09:28:30;96237.84;;;0.82;73.37
41703;BME280;861;48.808;9.006;2023-01-19T09:30:57;96246.03;;;1.01;73.50
41703;BME280;861;48.808;9.006;2023-01-19T09:33:24;96240.19;;;0.83;74.18
41703;BME280;861;48.808;9.006;2023-01-19T09:35:50;96247.97;;;0.61;75.03
41703;BME280;861;48.808;9.006;2023-01-19T09:38:20;96241.59;;;0.38;76.02
41703;BME280;861;48.808;9.006;2023-01-19T09:40:55;96244.84;;;0.86;75.16
41703;BME280;861;48.808;9.006;2023-01-19T09:43:49;96249.94;;;1.34;75.42
41703;BME280;861;48.808;9.006;2023-01-19T09:46:40;96251.31;;;1.44;72.58
41703;BME280;861;48.808;9.006;2023-01-19T09:49:27;96245.81;;;1.37;72.13
41703;BME280;861;48.808;9.006;2023-01-19T09:51:59;96241.91;;;1.50;74.42
41703;BME280;861;48.808;9.006;2023-01-19T09:54:34;96244.16;;;1.48;72.98
41703;BME280;861;48.808;9.006;2023-01-19T09:57:13;96234.28;;;1.52;72.82
41703;BME280;861;48.808;9.006;2023-01-19T09:59:41;96243.63;;;1.58;72.51
41703;BME280;861;48.808;9.006;2023-01-19T10:05:29;96241.97;;;1.85;72.15
41703;BME280;861;48.808;9.006;2023-01-19T10:10:57;96239.84;;;1.59;73.44
41703;BME280;861;48.808;9.006;2023-01-19T10:13:47;96228.38;;;1.93;71.64
41703;BME280;861;48.808;9.006;2023-01-19T10:17:44;96233.72;;;1.93;72.37
41703;BME280;861;48.808;9.006;2023-01-19T10:23:53;96243.97;;;1.72;71.71
41703;BME280;861;48.808;9.006;2023-01-19T10:26:49;96246.22;;;1.70;71.37
41703;BME280;861;48.808;9.006;2023-01-19T10:29:35;96247.25;;;1.81;72.74
41703;BME280;861;48.808;9.006;2023-01-19T10:34:53;96243.03;;;2.15;70.62
41703;BME280;861;48.808;9.006;2023-01-19T10:37:36;96246.09;;;1.98;73.00
41703;BME280;861;48.808;9.006;2023-01-19T10:42:40;96239.41;;;1.57;72.23
41703;BME280;861;48.808;9.006;2023-01-19T10:45:24;96243.03;;;1.49;73.25
41703;BME280;861;48.808;9.006;2023-01-19T10:48:04;96251.16;;;1.52;72.34
41703;BME280;861;48.808;9.006;2023-01-19T10:50:36;96248.91;;;1.70;72.21
41703;BME280;861;48.808;9.006;2023-01-19T10:53:21;96241.03;;;1.62;73.26
41703;BME280;861;48.808;9.006;2023-01-19T10:56:26;96248.31;;;2.27;72.77
41703;BME280;861;48.808;9.006;2023-01-19T10:58:59;96235.09;;;2.56;71.13
41703;BME280;861;48.808;9.006;2023-01-19T11:01:29;96243.28;;;2.82;69.99
41703;BME280;861;48.808;9.006;2023-01-19T11:03:57;96237.34;;;3.34;68.82
41703;BME280;861;48.808;9.006;2023-01-19T11:06:32;96239.53;;;2.68;68.03
41703;BME280;861;48.808;9.006;2023-01-19T11:09:19;96226.94;;;3.10;68.99
41703;BME280;861;48.808;9.006;2023-01-19T11:11:52;96230.88;;;3.16;68.16
41703;BME280;861;48.808;9.006;2023-01-19T11:14:29;96232.56;;;3.24;68.72
41703;BME280;861;48.808;9.006;2023-01-19T11:16:58;96226.78;;;3.45;68.36
41703;BME280;861;48.808;9.006;2023-01-19T11:19:31;96230.88;;;3.61;66.67
41703;BME280;861;48.808;9.006;2023-01-19T11:22:17;96216.72;;;4.16;64.06
41703;BME280;861;48.808;9.006;2023-01-19T11:24:49;96224.66;;;3.80;65.50
41703;BME280;861;48.808;9.006;2023-01-19T11:27:20;96209.91;;;3.48;66.86
41703;BME280;861;48.808;9.006;2023-01-19T11:30:24;96213.66;;;3.21;67.13
41703;BME280;861;48.808;9.006;2023-01-19T11:32:52;96215.63;;;3.24;67.73
41703;BME280;861;48.808;9.006;2023-01-19T11:35:38;96212.25;;;3.49;66.23
41703;BME280;861;48.808;9.006;2023-01-19T11:38:20;96219.47;;;3.23;68.28
41703;BME280;861;48.808;9.006;2023-01-19T11:40:57;96209.38;;;3.16;67.58
41703;BME280;861;48.808;9.006;2023-01-19T11:43:29;96216.91;;;2.88;68.72
41703;BME280;861;48.808;9.006;2023-01-19T11:45:58;96210.03;;;2.90;69.05
41703;BME280;861;48.808;9.006;2023-01-19T11:48:39;96202.63;;;2.65;69.19
41703;BME280;861;48.808;9.006;2023-01-19T11:51:17;96201.28;;;2.74;69.29
41703;BME280;861;48.808;9.006;2023-01-19T11:53:51;96215.94;;;2.58;69.74
41703;BME280;861;48.808;9.006;2023-01-19T11:56:25;96215.94;;;2.39;72.70
41703;BME280;861;48.808;9.006;2023-01-19T11:58:55;96207.16;;;2.23;71.03
41703;BME280;861;48.808;9.006;2023-01-19T12:01:33;96207.31;;;2.30;72.49
41703;BME280;861;48.808;9.006;2023-01-19T12:04:15;96210.22;;;2.59;70.28
41703;BME280;861;48.808;9.006;2023-01-19T12:06:57;96213.16;;;2.35;70.83
41703;BME280;861;48.808;9.006;2023-01-19T12:12:33;96205.25;;;2.23;71.68
41703;BME280;861;48.808;9.006;2023-01-19T12:15:33;96209.72;;;2.54;71.65
41703;BME280;861;48.808;9.006;2023-01-19T12:18:15;96205.31;;;2.65;70.04
41703;BME280;861;48.808;9.006;2023-01-19T12:20:54;96207.91;;;2.04;72.78
41703;BME280;861;48.808;9.006;2023-01-19T12:24:15;96212.00;;;2.52;71.18
41703;BME280;861;48.808;9.006;2023-01-19T12:27:17;96203.13;;;2.70;70.29
41703;BME280;861;48.808;9.006;2023-01-19T12:29:54;96213.88;;;2.51;70.00
41703;BME280;861;48.808;9.006;2023-01-19T12:32:34;96212.25;;;2.47;71.75
41703;BME280;861;48.808;9.006;2023-01-19T12:35:02;96221.09;;;2.47;71.60
41703;BME280;861;48.808;9.006;2023-01-19T12:40:27;96214.44;;;2.41;71.51
41703;BME280;861;48.808;9.006;2023-01-19T12:43:03;96217.09;;;2.22;71.67
41703;BME280;861;48.808;9.006;2023-01-19T12:45:37;96213.81;;;2.67;70.75
41703;BME280;861;48.808;9.006;2023-01-19T12:48:23;96219.19;;;2.67;71.23
41703;BME280;861;48.808;9.006;2023-01-19T12:50:51;96224.47;;;2.82;70.68
41703;BME280;861;48.808;9.006;2023-01-19T12:53:20;96226.06;;;2.64;72.02
41703;BME280;861;48.808;9.006;2023-01-19T12:56:03;96223.28;;;2.80;71.82
41703;BME280;861;48.808;9.006;2023-01-19T12:58:33;96226.44;;;2.85;70.86
41703;BME280;861;48.808;9.006;2023-01-19T13:01:18;96229.25;;;3.34;70.89
41703;BME280;861;48.808;9.006;2023-01-19T13:09:38;96232.03;;;3.15;72.57
41703;BME280;861;48.808;9.006;2023-01-19T13:14:42;96227.47;;;3.19;73.98
41703;BME280;861;48.808;9.006;2023-01-19T13:17:33;96228.97;;;3.17;73.83
41703;BME280;861;48.808;9.006;2023-01-19T13:20:43;96228.22;;;3.39;73.47
41703;BME280;861;48.808;9.006;2023-01-19T13:26:05;96237.13;;;3.43;72.85
41703;BME280;861;48.808;9.006;2023-01-19T13:28:44;96231.78;;;3.46;72.55
41703;BME280;861;48.808;9.006;2023-01-19T13:31:17;96226.72;;;3.41;72.85
41703;BME280;861;48.808;9.006;2023-01-19T13:33:58;96230.72;;;3.51;72.88
41703;BME280;861;48.808;9.006;2023-01-19T13:36:44;96235.88;;;3.85;71.96
41703;BME280;861;48.808;9.006;2023-01-19T13:39:36;96233.56;;;4.36;68.91
41703;BME280;861;48.808;9.006;2023-01-19T13:42:35;96241.13;;;4.01;68.40
41703;BME280;861;48.808;9.006;2023-01-19T13:45:35;96239.88;;;3.95;68.96
41703;BME280;861;48.808;9.006;2023-01-19T13:48:15;96236.34;;;3.91;69.39
41703;BME280;861;48.808;9.006;2023-01-19T13:51:02;96239.16;;;3.98;68.71
41703;BME280;861;48.808;9.006;2023-01-19T13:53:32;96241.41;;;3.70;70.10
41703;BME280;861;48.808;9.006;2023-01-19T13:56:27;96240.97;;;3.90;69.82
41703;BME280;861;48.808;9.006;2023-01-19T13:59:16;96241.41;;;3.92;69.55
41703;BME280;861;48.808;9.006;2023-01-19T14:01:45;96245.84;;;3.81;68.48
41703;BME280;861;48.808;9.006;2023-01-19T14:04:32;96241.13;;;3.75;69.86
41703;BME280;861;48.808;9.006;2023-01-19T14:07:12;96244.75;;;3.63;69.57
41703;BME280;861;48.808;9.006;2023-01-19T14:10:15;96243.25;;;3.88;69.02
41703;BME280;861;48.808;9.006;2023-01-19T14:12:43;96254.13;;;3.95;68.53
41703;BME280;861;48.808;9.006;2023-01-19T14:15:12;96250.88;;;3.83;69.44
41703;BME280;861;48.808;9.006;2023-01-19T14:17:40;96253.91;;;3.36;70.71
41703;BME280;861;48.808;9.006;2023-01-19T14:20:29;96252.00;;;3.59;69.96
41703;BME280;861;48.808;9.006;2023-01-19T14:22:55;96248.59;;;3.62;69.13
41703;BME280;861;48.808;9.006;2023-01-19T14:25:33;96247.31;;;3.56;70.21
41703;BME280;861;48.808;9.006;2023-01-19T14:28:42;96245.66;;;3.71;70.47
41703;BME280;861;48.808;9.006;2023-01-19T14:31:25;96253.13;;;3.81;69.38
41703;BME280;861;48.808;9.006;2023-01-19T14:33:56;96257.22;;;3.71;69.12
41703;BME280;861;48.808;9.006;2023-01-19T14:36:35;96246.44;;;3.71;69.20
41703;BME280;861;48.808;9.006;2023-01-19T14:39:15;96246.66;;;3.85;69.00
41703;BME280;861;48.808;9.006;2023-01-19T14:41:51;96252.78;;;3.82;68.94
41703;BME280;861;48.808;9.006;2023-01-19T14:44:36;96256.13;;;3.76;70.12
41703;BME280;861;48.808;9.006;2023-01-19T14:47:34;96251.31;;;3.88;69.19
41703;BME280;861;48.808;9.006;2023-01-19T14:50:37;96250.91;;;3.86;68.28